Time;durP1;ratioP1;P1;durP2;ratioP2;P2;SDS_P1;SDS_P2;PMS_P1;PMS_P2;Temp;Humidity;BMP_temperature;BMP_pressure;BME280_temperature;BME280_humidity;BME280_pressure;Samples;Min_cycle;Max_cycle;Signal;HPM_P1;HPM_P2
2022/11/30 00:02:11;;;;;;;73.68;44.08;;;;;;;1.44;99.55;98149.06;10250375;28;20125;-57
2022/11/30 00:07:10;;;;;;;17.48;10.15;;;;;;;1.36;99.71;98142.75;10250602;28;20053;-57
2022/11/30 00:12:09;;;;;;;37.70;21.08;;;;;;;1.35;99.76;98144.44;10250448;28;20058;-57
2022/11/30 00:17:08;;;;;;;84.20;47.28;;;;;;;1.47;99.69;98147.50;10250403;28;20130;-57
2022/11/30 00:22:07;;;;;;;6.80;3.92;;;;;;;1.57;99.04;98135.06;10249622;28;20041;-55
2022/11/30 00:27:05;;;;;;;18.70;13.98;;;;;;;1.53;98.89;98139.22;10250215;28;20046;-56
2022/11/30 00:32:04;;;;;;;14.73;8.32;;;;;;;1.55;99.18;98145.22;10249851;28;20112;-56
2022/11/30 00:37:03;;;;;;;5.60;3.85;;;;;;;1.61;99.49;98150.63;10249761;28;20041;-56
2022/11/30 00:42:03;;;;;;;12.75;8.43;;;;;;;1.65;99.25;98149.06;10249217;28;20512;-56
2022/11/30 00:47:02;;;;;;;11.07;7.13;;;;;;;1.70;99.03;98150.13;10251592;28;20070;-56
2022/11/30 00:52:01;;;;;;;6.18;3.83;;;;;;;1.73;99.03;98151.09;10257420;28;20062;-56
2022/11/30 00:57:00;;;;;;;4.75;3.15;;;;;;;1.74;99.16;98145.19;10256975;28;20482;-55
2022/11/30 01:01:59;;;;;;;11.00;6.70;;;;;;;1.75;99.05;98128.16;10256616;28;20078;-56
2022/11/30 01:06:58;;;;;;;7.25;4.38;;;;;;;1.80;98.97;98138.56;10257112;28;20065;-56
2022/11/30 01:11:57;;;;;;;7.07;3.97;;;;;;;1.83;98.84;98136.13;10256495;28;20038;-56
2022/11/30 01:16:56;;;;;;;7.90;4.35;;;;;;;1.85;98.97;98134.50;10256380;28;20467;-56
2022/11/30 01:21:55;;;;;;;8.13;4.63;;;;;;;1.81;98.38;98135.19;10255813;28;20041;-56
2022/11/30 01:26:54;;;;;;;8.05;4.35;;;;;;;1.81;98.66;98132.63;10255894;28;20416;-56
2022/11/30 01:31:53;;;;;;;9.43;5.15;;;;;;;1.84;98.82;98135.31;10256093;28;20057;-56
2022/11/30 01:36:51;;;;;;;9.57;5.88;;;;;;;1.89;98.60;98132.13;10255796;28;20113;-56
2022/11/30 01:41:53;;;;;;;8.55;5.40;;;;;;;1.94;98.56;98129.72;10255187;28;20121;-56
2022/11/30 01:47:00;;;;;;;7.93;5.45;;;;;;;1.91;99.05;98119.38;10255220;28;20073;-56
2022/11/30 01:52:09;;;;;;;15.30;9.25;;;;;;;1.95;98.66;98126.38;10254702;28;20069;-56
2022/11/30 01:57:31;;;;;;;13.90;8.88;;;;;;;1.88;98.96;98120.16;10255069;28;20445;-56
2022/11/30 02:02:46;;;;;;;14.23;8.35;;;;;;;1.90;98.97;98122.75;10253179;28;20078;-56
2022/11/30 02:07:45;;;;;;;9.45;6.25;;;;;;;1.86;98.49;98120.91;10254096;28;20492;-56
2022/11/30 02:13:21;;;;;;;8.68;5.50;;;;;;;1.82;98.76;98113.91;10254589;28;20065;-56
2022/11/30 02:18:38;;;;;;;9.98;5.95;;;;;;;1.84;98.49;98117.41;10254539;28;20066;-55
2022/11/30 02:23:59;;;;;;;11.90;7.03;;;;;;;1.81;98.20;98114.72;10253754;28;20066;-55
2022/11/30 02:29:13;;;;;;;9.98;6.50;;;;;;;1.75;98.99;98108.53;10253297;28;20062;-56
2022/11/30 02:34:14;;;;;;;13.65;8.70;;;;;;;1.72;98.73;98111.00;10253381;28;20443;-55
2022/11/30 02:39:14;;;;;;;17.42;11.27;;;;;;;1.77;98.49;98121.41;10252880;28;20065;-56
2022/11/30 02:44:14;;;;;;;16.52;10.68;;;;;;;1.82;98.50;98119.03;10252961;28;20539;-56
2022/11/30 02:49:28;;;;;;;19.00;10.50;;;;;;;1.87;98.64;98113.25;10252538;28;20084;-57
2022/11/30 02:54:27;;;;;;;17.83;9.93;;;;;;;1.90;98.53;98121.09;10252907;28;20066;-57
2022/11/30 02:59:27;;;;;;;21.80;12.65;;;;;;;1.91;98.63;98119.38;10252313;28;20445;-57
2022/11/30 03:04:26;;;;;;;;;;;;;;;1.92;98.98;98123.69;10252121;28;20081;-57
2022/11/30 03:09:24;;;;;;;24.95;14.57;;;;;;;1.96;98.55;98120.44;10251631;28;20011;-57
2022/11/30 03:14:23;;;;;;;23.52;13.57;;;;;;;1.99;98.50;98130.78;10252551;28;20065;-57
2022/11/30 03:19:22;;;;;;;19.85;11.98;;;;;;;2.00;98.96;98124.88;10251898;28;20074;-57
2022/11/30 03:24:21;;;;;;;16.67;9.73;;;;;;;1.97;98.50;98129.84;10251609;28;20050;-57
2022/11/30 03:29:20;;;;;;;16.25;9.40;;;;;;;1.98;99.20;98120.50;10251197;28;20036;-57
2022/11/30 03:34:19;;;;;;;19.25;12.35;;;;;;;2.00;98.93;98137.66;10251289;28;20034;-57
2022/11/30 03:39:18;;;;;;;18.98;11.70;;;;;;;1.99;98.55;98130.78;10251317;28;20041;-57
2022/11/30 03:44:18;;;;;;;23.75;14.40;;;;;;;1.96;98.13;98134.09;10250912;28;20026;-57
2022/11/30 03:49:17;;;;;;;18.95;12.05;;;;;;;1.99;98.68;98135.91;10250391;28;20486;-57
2022/11/30 03:54:16;;;;;;;18.40;11.45;;;;;;;2.04;98.54;98142.06;10250542;28;20080;-57
2022/11/30 03:59:15;;;;;;;18.38;10.48;;;;;;;2.05;98.47;98148.06;10250475;28;20113;-57
2022/11/30 04:04:14;;;;;;;12.75;7.40;;;;;;;1.89;98.73;98144.03;10250206;28;20046;-57
2022/11/30 04:09:13;;;;;;;8.73;4.53;;;;;;;1.80;98.88;98141.13;10245784;28;20065;-57
2022/11/30 04:14:12;;;;;;;11.27;5.95;;;;;;;1.72;98.39;98149.38;10246748;28;20066;-57
2022/11/30 04:19:11;;;;;;;5.78;3.40;;;;;;;1.52;98.31;98150.25;10248879;28;20038;-57
2022/11/30 04:24:10;;;;;;;10.10;6.00;;;;;;;1.38;98.95;98156.47;10255592;28;20069;-57
2022/11/30 04:29:09;;;;;;;9.40;6.15;;;;;;;1.34;98.89;98158.00;10256497;28;20042;-57
2022/11/30 04:34:08;;;;;;;16.58;8.90;;;;;;;1.41;98.75;98156.59;10256713;28;20113;-57
2022/11/30 04:39:07;;;;;;;17.10;11.60;;;;;;;1.36;98.94;98158.09;10256990;28;20073;-57
2022/11/30 04:44:06;;;;;;;16.67;10.45;;;;;;;1.31;98.86;98160.44;10254049;28;20081;-57
2022/11/30 04:49:05;;;;;;;11.10;7.80;;;;;;;1.26;99.39;98156.84;10256979;28;20121;-57
2022/11/30 04:54:04;;;;;;;12.93;8.00;;;;;;;1.42;99.01;98174.56;10255724;28;20026;-57
2022/11/30 04:59:03;;;;;;;11.70;7.32;;;;;;;1.40;98.90;98170.19;10255908;28;20097;-57
2022/11/30 05:04:02;;;;;;;9.57;5.85;;;;;;;1.31;99.17;98166.44;10255826;28;20082;-57
2022/11/30 05:09:01;;;;;;;22.23;13.40;;;;;;;1.32;98.61;98173.31;10255712;28;20061;-57
2022/11/30 05:14:00;;;;;;;29.45;19.17;;;;;;;1.31;98.84;98169.00;10255383;28;20042;-57
2022/11/30 05:18:59;;;;;;;51.88;28.70;;;;;;;1.31;98.76;98176.66;10255556;28;20038;-57
2022/11/30 05:23:58;;;;;;;43.25;24.25;;;;;;;1.34;99.22;98175.91;10255302;28;20066;-57
2022/11/30 05:28:57;;;;;;;24.42;19.08;;;;;;;1.32;98.68;98168.19;10255639;28;20108;-57
2022/11/30 05:33:56;;;;;;;18.80;12.98;;;;;;;1.26;98.90;98177.28;10254672;28;20089;-57
2022/11/30 05:38:55;;;;;;;21.13;13.93;;;;;;;1.31;99.11;98181.78;10255940;28;20081;-57
2022/11/30 05:43:55;;;;;;;30.48;19.25;;;;;;;1.38;99.01;98192.28;10255204;28;20034;-55
2022/11/30 05:48:54;;;;;;;37.42;23.63;;;;;;;1.47;99.01;98185.84;10255275;28;20073;-55
2022/11/30 05:53:53;;;;;;;39.97;25.33;;;;;;;1.54;99.26;98190.41;10254015;28;20026;-55
2022/11/30 05:58:52;;;;;;;42.08;27.63;;;;;;;1.60;99.60;98194.91;10254553;28;20412;-55
2022/11/30 06:03:51;;;;;;;39.88;25.98;;;;;;;1.66;99.35;98200.28;10252549;28;20050;-57
2022/11/30 06:08:50;;;;;;;45.72;29.58;;;;;;;1.72;99.27;98199.66;10254033;28;20062;-57
2022/11/30 06:13:49;;;;;;;31.05;19.38;;;;;;;1.68;98.94;98208.88;10254250;28;20061;-57
2022/11/30 06:18:48;;;;;;;211.30;118.18;;;;;;;1.66;99.00;98207.94;10268813;28;20046;-57
2022/11/30 06:23:47;;;;;;;120.95;64.78;;;;;;;1.65;99.19;98224.13;10253731;28;20026;-57
2022/11/30 06:28:46;;;;;;;37.60;20.83;;;;;;;1.57;99.44;98233.13;10253568;28;20133;-57
2022/11/30 06:33:45;;;;;;;16.60;11.15;;;;;;;1.57;99.39;98216.94;10252908;28;20022;-57
2022/11/30 06:38:44;;;;;;;25.92;17.55;;;;;;;1.53;99.43;98227.03;10240021;28;20114;-57
2022/11/30 06:43:43;;;;;;;26.33;17.83;;;;;;;1.52;99.23;98222.72;10236719;28;20540;-57
2022/11/30 06:48:42;;;;;;;17.23;11.45;;;;;;;1.42;99.29;98241.06;10252826;28;20069;-57
2022/11/30 06:53:43;;;;;;;8.30;5.70;;;;;;;1.37;99.36;98236.56;10250397;28;20261;-57
2022/11/30 06:58:42;;;;;;;14.35;9.23;;;;;;;1.33;99.23;98236.41;10213318;28;20073;-57
2022/11/30 07:03:41;;;;;;;15.52;10.02;;;;;;;1.33;99.42;98240.66;10238846;28;20042;-57
2022/11/30 07:08:41;;;;;;;14.95;9.60;;;;;;;1.42;100.00;98235.06;10252185;28;20522;-57
2022/11/30 07:13:40;;;;;;;13.02;8.27;;;;;;;1.54;99.89;98249.22;10251572;28;20438;-55
2022/11/30 07:18:39;;;;;;;17.05;8.82;;;;;;;1.63;99.71;98243.63;10252425;28;20307;-57
2022/11/30 07:28:57;;;;;;;20.42;12.40;;;;;;;1.79;100.00;98245.16;10252410;28;20069;-57
2022/11/30 07:33:58;;;;;;;20.73;12.88;;;;;;;1.88;99.35;98248.09;10251153;28;20077;-55
2022/11/30 07:38:57;;;;;;;35.33;20.77;;;;;;;1.89;99.17;98259.19;10250776;28;20065;-57
2022/11/30 07:43:56;;;;;;;22.25;13.52;;;;;;;1.84;99.25;98250.47;10250722;28;20086;-56
2022/11/30 07:48:55;;;;;;;24.95;17.25;;;;;;;1.83;99.36;98246.13;10251238;28;20074;-55
2022/11/30 07:53:55;;;;;;;15.05;9.40;;;;;;;1.89;98.98;98243.84;10249835;28;20030;-55
2022/11/30 07:58:56;;;;;;;15.25;11.02;;;;;;;2.08;98.75;98248.88;10249918;28;20511;-55
2022/11/30 08:03:57;;;;;;;17.05;11.40;;;;;;;2.10;98.97;98249.81;10248966;28;20480;-55
2022/11/30 08:08:58;;;;;;;17.95;11.93;;;;;;;2.22;98.91;98258.81;10249486;28;20073;-55
2022/11/30 08:13:57;;;;;;;15.18;9.90;;;;;;;2.28;98.29;98248.84;10250051;28;20078;-57
2022/11/30 08:18:57;;;;;;;19.33;12.10;;;;;;;2.11;98.14;98241.34;10250145;28;20074;-56
2022/11/30 08:23:56;;;;;;;13.40;7.93;;;;;;;2.06;98.00;98241.97;10246352;28;20074;-56
2022/11/30 08:28:56;;;;;;;17.08;9.85;;;;;;;1.94;97.97;98250.88;10247562;28;20078;-56
2022/11/30 08:34:01;;;;;;;14.52;9.55;;;;;;;2.14;98.07;98259.38;10244912;28;20066;-56
2022/11/30 08:39:03;;;;;;;8.30;4.68;;;;;;;2.25;97.19;98254.69;10248604;28;20476;-56
2022/11/30 08:44:02;;;;;;;11.32;7.93;;;;;;;2.19;97.46;98258.72;10248654;28;20101;-57
2022/11/30 08:49:01;;;;;;;12.40;7.68;;;;;;;2.00;97.18;98237.47;10247579;28;20061;-57
2022/11/30 08:54:00;;;;;;;9.95;6.70;;;;;;;2.07;97.38;98238.59;10248210;28;20058;-58
2022/11/30 08:58:59;;;;;;;7.18;4.00;;;;;;;2.22;97.34;98243.47;10244811;28;20073;-57
2022/11/30 09:03:58;;;;;;;13.45;9.55;;;;;;;2.07;96.89;98248.84;10247997;28;20065;-57
2022/11/30 09:08:58;;;;;;;19.38;10.98;;;;;;;2.23;97.26;98246.09;10246666;28;20463;-58
2022/11/30 09:14:00;;;;;;;8.38;4.88;;;;;;;2.28;96.85;98239.47;10254549;28;20077;-57
2022/11/30 09:18:59;;;;;;;9.73;5.90;;;;;;;2.11;96.29;98240.47;10251797;28;20070;-57
2022/11/30 09:23:58;;;;;;;52.03;30.27;;;;;;;2.08;97.05;98230.09;10253097;28;20035;-57
2022/11/30 09:28:57;;;;;;;11.85;9.02;;;;;;;2.15;96.77;98230.41;10251681;28;20037;-57
2022/11/30 09:33:57;;;;;;;11.88;8.43;;;;;;;2.27;97.24;98241.94;10254777;28;20022;-58
2022/11/30 09:38:56;;;;;;;32.72;21.95;;;;;;;2.32;96.46;98245.56;10254905;28;20515;-57
2022/11/30 09:44:07;;;;;;;12.27;7.82;;;;;;;2.16;96.59;98239.84;10254641;28;20483;-57
2022/11/30 09:49:15;;;;;;;16.65;9.65;;;;;;;2.17;96.58;98236.47;10246176;28;20077;-57
2022/11/30 09:54:19;;;;;;;8.65;6.38;;;;;;;2.01;96.69;98238.34;10253025;28;20221;-57
2022/11/30 09:59:25;;;;;;;7.65;4.88;;;;;;;1.86;96.57;98234.38;10256523;28;20766;-57
2022/11/30 10:04:26;;;;;;;3.33;2.65;;;;;;;1.78;96.76;98229.72;10255844;28;20085;-56
2022/11/30 10:09:54;;;;;;;4.65;3.28;;;;;;;1.91;96.73;98232.84;10256132;28;20070;-58
2022/11/30 10:15:11;;;;;;;5.47;3.75;;;;;;;1.97;96.81;98237.34;10256239;28;20066;-56
2022/11/30 10:20:32;;;;;;;6.78;3.30;;;;;;;1.82;97.82;98236.72;10255578;28;20077;-56
2022/11/30 10:25:55;;;;;;;3.83;2.47;;;;;;;1.66;97.45;98224.97;10243595;28;20504;-57
2022/11/30 10:30:54;;;;;;;2.08;1.52;;;;;;;1.68;97.39;98221.69;10285315;28;20156;-57
2022/11/30 10:35:57;;;;;;;4.32;2.70;;;;;;;1.73;97.67;98225.28;10255174;28;20457;-57
2022/11/30 10:41:01;;;;;;;4.32;2.50;;;;;;;1.86;98.37;98223.25;10255037;28;20070;-57
2022/11/30 10:46:00;;;;;;;12.75;6.68;;;;;;;2.05;98.27;98233.41;10255416;28;20461;-57
2022/11/30 10:51:01;;;;;;;7.57;4.68;;;;;;;2.15;97.82;98221.84;10245738;28;20588;-57
2022/11/30 10:56:02;;;;;;;8.57;5.20;;;;;;;2.27;98.08;98229.16;10250732;28;20468;-57
2022/11/30 11:01:07;;;;;;;15.25;9.35;;;;;;;2.31;97.63;98219.09;10251580;28;20085;-57
2022/11/30 11:06:13;;;;;;;7.07;4.25;;;;;;;2.43;96.75;98217.81;10243569;28;20069;-57
2022/11/30 11:11:34;;;;;;;6.72;3.08;;;;;;;2.39;96.58;98221.94;10251247;28;20070;-57
2022/11/30 11:16:52;;;;;;;5.15;3.45;;;;;;;2.41;96.65;98220.31;10249889;28;20070;-57
2022/11/30 11:21:51;;;;;;;4.68;2.78;;;;;;;2.36;96.78;98209.88;10249472;28;20061;-57
2022/11/30 11:26:52;;;;;;;2.25;1.67;;;;;;;2.36;96.13;98201.34;10245852;28;20500;-57
2022/11/30 11:31:51;;;;;;;24.17;12.57;;;;;;;2.46;96.53;98211.09;10249636;28;20077;-57
2022/11/30 11:37:05;;;;;;;21.30;13.40;;;;;;;2.33;95.88;98196.09;10247978;28;20069;-57
2022/11/30 11:42:04;;;;;;;16.88;11.27;;;;;;;2.16;95.52;98203.09;10240046;28;20084;-57
2022/11/30 11:47:06;;;;;;;17.35;11.88;;;;;;;2.29;96.21;98205.34;10250250;28;20070;-57
2022/11/30 11:52:20;;;;;;;12.48;9.02;;;;;;;2.35;96.79;98194.47;10249418;28;20077;-57
2022/11/30 11:57:26;;;;;;;2.42;1.98;;;;;;;2.47;96.08;98206.88;10249769;28;20073;-57
2022/11/30 12:02:40;;;;;;;9.85;6.07;;;;;;;2.53;96.06;98204.53;10251930;28;20077;-57
2022/11/30 12:08:10;;;;;;;11.13;7.05;;;;;;;2.59;95.64;98209.91;10251989;28;20480;-57
2022/11/30 12:13:16;;;;;;;10.38;5.72;;;;;;;2.55;95.15;98211.44;10252777;28;20070;-57
2022/11/30 12:18:29;;;;;;;6.32;3.42;;;;;;;2.37;94.90;98205.63;10266836;28;20080;-57
2022/11/30 12:23:40;;;;;;;17.13;9.32;;;;;;;2.44;95.05;98212.75;10243265;28;20480;-57
2022/11/30 12:28:58;;;;;;;8.10;5.45;;;;;;;2.47;95.04;98212.88;10241725;28;20066;-57
2022/11/30 12:34:16;;;;;;;10.18;5.65;;;;;;;2.41;95.16;98209.19;10242209;28;20513;-57
2022/11/30 12:39:43;;;;;;;4.00;2.67;;;;;;;2.40;94.36;98213.44;10251571;28;20070;-57
2022/11/30 12:44:59;;;;;;;10.82;7.30;;;;;;;2.47;95.01;98210.31;10225479;28;20082;-57
2022/11/30 12:50:16;;;;;;;5.15;2.70;;;;;;;2.36;94.28;98211.56;10218765;28;20082;-57
2022/11/30 12:55:36;;;;;;;10.32;6.90;;;;;;;2.24;94.29;98218.78;10257215;28;20070;-57
2022/11/30 13:01:20;;;;;;;10.13;6.68;;;;;;;2.24;95.03;98223.91;10258370;28;20504;-57
2022/11/30 13:06:26;;;;;;;8.38;4.63;;;;;;;2.26;95.38;98235.09;10251084;28;20074;-58
2022/11/30 13:11:36;;;;;;;6.72;4.60;;;;;;;2.26;95.28;98214.59;10258079;28;20573;-57
2022/11/30 13:16:36;;;;;;;9.60;6.18;;;;;;;2.23;94.85;98215.38;10257905;28;20097;-57
2022/11/30 13:21:43;;;;;;;9.55;4.20;;;;;;;2.07;96.11;98229.25;10257777;28;20062;-57
2022/11/30 13:26:51;;;;;;;21.15;14.43;;;;;;;1.82;97.40;98216.25;10257403;28;20080;-57
2022/11/30 13:32:06;;;;;;;23.57;13.27;;;;;;;1.64;99.14;98227.47;10257048;28;20089;-57
2022/11/30 13:37:11;;;;;;;18.15;11.85;;;;;;;1.60;99.64;98225.63;10257358;28;20073;-57
2022/11/30 13:42:42;;;;;;;15.02;8.23;;;;;;;1.61;99.90;98227.34;10257437;28;20077;-57
2022/11/30 13:47:50;;;;;;;21.50;14.18;;;;;;;1.54;100.00;98235.56;10257475;28;20070;-57
2022/11/30 13:53:02;;;;;;;24.52;15.43;;;;;;;1.52;100.00;98232.06;10256432;28;20089;-57
2022/11/30 13:58:03;;;;;;;20.23;13.60;;;;;;;1.60;100.00;98240.06;10256872;28;20092;-57
2022/11/30 14:03:20;;;;;;;17.65;12.20;;;;;;;1.58;100.00;98237.47;10256063;28;20074;-57
2022/11/30 14:08:19;;;;;;;11.57;8.20;;;;;;;1.38;100.00;98223.81;10256336;28;20508;-57
2022/11/30 14:13:24;;;;;;;18.05;12.68;;;;;;;1.49;100.00;98211.50;10256256;28;20484;-57
2022/11/30 14:18:47;;;;;;;12.20;8.70;;;;;;;1.48;100.00;98210.63;10256235;28;20065;-58
2022/11/30 14:23:46;;;;;;;6.50;4.53;;;;;;;1.50;100.00;98213.22;10248425;28;20137;-57
2022/11/30 14:29:01;;;;;;;12.18;7.72;;;;;;;1.68;100.00;98213.13;10251981;28;20041;-56
2022/11/30 14:34:08;;;;;;;11.80;8.98;;;;;;;1.73;100.00;98217.63;10252705;28;20049;-56
2022/11/30 14:39:30;;;;;;;16.55;12.43;;;;;;;1.69;100.00;98218.31;10253457;28;20066;-58
2022/11/30 14:44:39;;;;;;;11.98;6.50;;;;;;;1.58;100.00;98211.88;10253700;28;20073;-56
2022/11/30 14:49:43;;;;;;;;;;;;;;;1.52;100.00;98216.72;10254090;28;20073;-56
2022/11/30 14:54:55;;;;;;;13.15;9.45;;;;;;;1.47;100.00;98213.13;10251213;28;20391;-56
2022/11/30 14:59:55;;;;;;;16.75;13.07;;;;;;;1.43;100.00;98224.88;10250229;28;20066;-56
2022/11/30 15:04:56;;;;;;;4.13;3.13;;;;;;;1.39;100.00;98230.69;10246512;28;20113;-57
2022/11/30 15:10:09;;;;;;;41.75;23.38;;;;;;;1.36;100.00;98222.88;10248320;28;20092;-56
2022/11/30 15:15:13;;;;;;;29.08;15.40;;;;;;;1.37;100.00;98231.44;10248516;28;20062;-58
2022/11/30 15:20:30;;;;;;;16.02;13.70;;;;;;;1.44;100.00;98238.56;10250513;28;20074;-57
2022/11/30 15:25:39;;;;;;;11.77;6.30;;;;;;;1.40;100.00;98236.69;10250562;28;20074;-57
2022/11/30 15:30:41;;;;;;;20.63;15.15;;;;;;;1.37;100.00;98239.13;10250256;28;20085;-58
2022/11/30 15:35:45;;;;;;;17.20;13.07;;;;;;;1.42;100.00;98248.72;10249951;28;20558;-58
2022/11/30 15:40:46;;;;;;;46.05;32.15;;;;;;;1.32;100.00;98252.56;10249663;28;20069;-57
2022/11/30 15:46:06;;;;;;;62.90;35.28;;;;;;;1.39;100.00;98261.38;10249904;28;20512;-57
2022/11/30 15:51:05;;;;;;;23.90;16.23;;;;;;;1.44;100.00;98256.47;10248122;28;20077;-57
2022/11/30 15:56:21;;;;;;;16.75;10.55;;;;;;;1.49;100.00;98253.28;10249626;28;20066;-57
2022/11/30 16:01:23;;;;;;;27.55;17.33;;;;;;;1.44;100.00;98233.44;10249367;28;20081;-57
2022/11/30 16:06:31;;;;;;;35.67;22.90;;;;;;;1.49;100.00;98248.16;10248581;28;20078;-57
2022/11/30 16:11:31;;;;;;;15.90;10.13;;;;;;;1.42;100.00;98246.16;10249400;28;20088;-57
2022/11/30 16:16:31;;;;;;;45.90;29.42;;;;;;;1.41;100.00;98251.19;10250904;28;20065;-57
2022/11/30 16:21:30;;;;;;;20.65;13.07;;;;;;;1.35;100.00;98250.97;10262581;28;20088;-56
2022/11/30 16:26:29;;;;;;;41.28;25.60;;;;;;;1.35;100.00;98251.81;10262031;28;20045;-58
2022/11/30 16:31:28;;;;;;;33.80;20.98;;;;;;;1.40;100.00;98249.47;10262401;28;20030;-57
2022/11/30 16:36:28;;;;;;;44.20;21.88;;;;;;;1.45;100.00;98242.84;10261874;28;20027;-58
2022/11/30 16:41:27;;;;;;;37.03;19.27;;;;;;;1.58;100.00;98236.59;10261613;28;20074;-57
2022/11/30 16:46:28;;;;;;;13.00;9.32;;;;;;;1.60;100.00;98256.31;10261928;28;20030;-58
2022/11/30 16:51:33;;;;;;;12.93;8.95;;;;;;;1.45;100.00;98256.50;10262625;28;20112;-57
2022/11/30 16:56:32;;;;;;;9.15;5.65;;;;;;;1.29;100.00;98259.22;10261503;28;20066;-57
2022/11/30 17:01:40;;;;;;;10.75;7.00;;;;;;;1.24;100.00;98258.16;10261897;28;20082;-57
2022/11/30 17:06:39;;;;;;;19.10;11.52;;;;;;;1.40;100.00;98264.81;10261417;28;20069;-57
2022/11/30 17:11:39;;;;;;;170.27;92.10;;;;;;;1.54;100.00;98266.28;10261836;28;20034;-57
2022/11/30 17:16:39;;;;;;;23.67;16.30;;;;;;;1.69;100.00;98266.94;10261389;28;20073;-57
2022/11/30 17:21:40;;;;;;;20.60;13.43;;;;;;;1.78;100.00;98257.88;10260991;28;20069;-57
2022/11/30 17:26:40;;;;;;;12.80;7.65;;;;;;;1.81;100.00;98252.88;10261158;28;20778;-57
2022/11/30 17:31:39;;;;;;;25.67;17.20;;;;;;;1.84;100.00;98256.44;10254625;28;20102;-57
2022/11/30 17:36:38;;;;;;;121.88;69.35;;;;;;;1.96;100.00;98256.09;10255001;28;20030;-57
2022/11/30 17:41:36;;;;;;;71.70;38.80;;;;;;;1.93;100.00;98250.84;10254269;28;20487;-57
2022/11/30 17:46:37;;;;;;;96.15;53.33;;;;;;;2.01;100.00;98259.69;10254127;28;20041;-57
2022/11/30 17:51:36;;;;;;;18.75;12.15;;;;;;;1.81;100.00;98255.44;10254065;28;20078;-57
2022/11/30 17:56:35;;;;;;;32.25;22.00;;;;;;;1.74;100.00;98252.66;10253647;28;20109;-57
2022/11/30 18:01:34;;;;;;;24.67;15.27;;;;;;;1.70;100.00;98248.19;10254026;28;20446;-57
2022/11/30 18:06:33;;;;;;;;;;;;;;;1.75;100.00;98253.50;10253968;28;20516;-57
2022/11/30 18:11:32;;;;;;;43.20;25.90;;;;;;;1.61;100.00;98258.03;10253307;28;20299;-57
2022/11/30 18:16:32;;;;;;;;;;;;;;;1.68;100.00;98261.75;10254263;28;20089;-57
2022/11/30 18:21:31;;;;;;;32.70;19.55;;;;;;;1.67;100.00;98244.63;10252927;28;19952;-57
2022/11/30 18:26:32;;;;;;;44.78;24.52;;;;;;;1.56;100.00;98254.44;10252197;28;20073;-57
2022/11/30 18:31:31;;;;;;;33.58;19.98;;;;;;;1.56;100.00;98267.22;10252905;28;20070;-57
2022/11/30 18:36:31;;;;;;;31.23;20.67;;;;;;;1.45;100.00;98236.06;10252224;28;20500;-57
2022/11/30 18:41:30;;;;;;;59.80;37.20;;;;;;;1.52;100.00;98270.44;10252377;28;20074;-57
2022/11/30 18:46:29;;;;;;;42.13;27.65;;;;;;;1.49;100.00;98257.53;10252106;28;20027;-57
2022/11/30 18:51:30;;;;;;;32.25;21.70;;;;;;;1.39;100.00;98257.94;10251878;28;20385;-57
2022/11/30 18:56:31;;;;;;;38.30;25.60;;;;;;;1.39;100.00;98251.16;10251252;28;20158;-57
2022/11/30 19:01:31;;;;;;;35.50;22.80;;;;;;;1.42;100.00;98260.63;10250973;28;20078;-57
2022/11/30 19:06:33;;;;;;;30.02;18.23;;;;;;;1.44;100.00;98264.13;10251563;28;20088;-57
2022/11/30 19:11:32;;;;;;;31.33;19.92;;;;;;;1.49;100.00;98268.63;10250746;28;20070;-57
2022/11/30 19:16:35;;;;;;;;;;;;;;;1.43;100.00;98270.03;10251532;28;20074;-57
2022/11/30 19:21:34;;;;;;;35.47;21.33;;;;;;;1.42;100.00;98273.44;10250903;28;20385;-57
2022/11/30 19:26:33;;;;;;;33.30;20.38;;;;;;;1.35;100.00;98279.94;10250070;28;20485;-57
2022/11/30 19:31:32;;;;;;;43.97;25.85;;;;;;;1.41;100.00;98271.66;10250358;28;20076;-57
2022/11/30 19:36:31;;;;;;;57.35;38.70;;;;;;;1.37;100.00;98269.81;10250214;28;20069;-56
2022/11/30 19:41:30;;;;;;;29.25;17.15;;;;;;;1.50;100.00;98274.63;10249878;28;20041;-57
2022/11/30 19:46:31;;;;;;;20.38;11.30;;;;;;;1.47;100.00;98279.59;10249985;28;20073;-57
2022/11/30 19:51:30;;;;;;;31.15;19.65;;;;;;;1.50;100.00;98279.72;10249037;28;20088;-58
2022/11/30 19:56:33;;;;;;;27.02;17.50;;;;;;;1.56;100.00;98276.56;10249533;28;20026;-57
2022/11/30 20:01:32;;;;;;;20.98;12.38;;;;;;;1.52;100.00;98281.53;10249336;28;20090;-57
2022/11/30 20:06:34;;;;;;;25.90;15.85;;;;;;;1.51;100.00;98272.13;10249162;28;20070;-58
2022/11/30 20:11:34;;;;;;;27.40;16.35;;;;;;;1.46;100.00;98286.41;10248962;28;20531;-58
2022/11/30 20:16:33;;;;;;;24.27;15.98;;;;;;;1.40;100.00;98285.25;10249429;28;20070;-58
2022/11/30 20:21:33;;;;;;;26.80;16.45;;;;;;;1.36;100.00;98286.81;10249153;28;20074;-58
2022/11/30 20:26:38;;;;;;;34.95;20.75;;;;;;;1.40;100.00;98287.81;10248855;28;20080;-58
2022/11/30 20:31:37;;;;;;;64.65;37.47;;;;;;;1.35;100.00;98290.19;10248741;28;20567;-58
2022/11/30 20:36:36;;;;;;;49.47;27.02;;;;;;;1.28;100.00;98265.16;10248445;28;20018;-58
2022/11/30 20:41:35;;;;;;;;;;;;;;;1.47;100.00;98282.16;10249497;28;20070;-58
2022/11/30 20:46:34;;;;;;;36.78;23.25;;;;;;;1.52;100.00;98289.22;10248495;28;20025;-58
2022/11/30 20:51:33;;;;;;;23.25;14.60;;;;;;;1.45;100.00;98288.88;10248400;28;20077;-58
2022/11/30 20:56:34;;;;;;;21.23;14.23;;;;;;;1.36;100.00;98297.03;10248341;28;20066;-58
2022/11/30 21:01:33;;;;;;;16.38;10.70;;;;;;;1.35;100.00;98294.44;10248265;28;20467;-57
2022/11/30 21:06:32;;;;;;;20.92;10.57;;;;;;;1.32;100.00;98300.28;10253913;28;20161;-58
2022/11/30 21:11:31;;;;;;;;;;;;;;;1.29;100.00;98295.91;10255817;28;20618;-58
2022/11/30 21:16:30;;;;;;;22.75;14.38;;;;;;;1.25;100.00;98299.13;10255658;28;20356;-58
2022/11/30 21:21:31;;;;;;;14.35;8.13;;;;;;;1.24;100.00;98301.59;10255555;28;20488;-58
2022/11/30 21:26:33;;;;;;;14.90;8.57;;;;;;;1.28;100.00;98299.25;10255052;28;20066;-57
2022/11/30 21:31:32;;;;;;;20.35;12.30;;;;;;;1.35;100.00;98296.97;10254624;28;20078;-58
2022/11/30 21:36:31;;;;;;;;;;;;;;;1.45;100.00;98296.56;10255140;28;20065;-58
2022/11/30 21:41:31;;;;;;;23.45;12.82;;;;;;;1.53;100.00;98300.34;10254426;28;19997;-58
2022/11/30 21:46:30;;;;;;;;;;;;;;;1.57;100.00;98307.31;10254857;28;20070;-58
2022/11/30 21:51:30;;;;;;;12.95;7.38;;;;;;;1.53;100.00;98303.78;10254061;28;19949;-58
2022/11/30 21:56:32;;;;;;;29.75;16.88;;;;;;;1.44;100.00;98311.03;10254005;28;20070;-58
2022/11/30 22:01:37;;;;;;;97.35;47.92;;;;;;;1.24;100.00;98302.47;10253743;28;20085;-58
2022/11/30 22:06:37;;;;;;;12.05;7.20;;;;;;;1.29;100.00;98311.25;10253564;28;20081;-58
2022/11/30 22:11:39;;;;;;;54.25;30.08;;;;;;;1.37;100.00;98303.03;10253278;28;20153;-58
2022/11/30 22:16:38;;;;;;;41.00;23.95;;;;;;;1.43;100.00;98300.72;10252236;28;20073;-58
2022/11/30 22:21:38;;;;;;;11.45;6.60;;;;;;;1.49;100.00;98301.88;10252970;28;20085;-58
2022/11/30 22:26:42;;;;;;;12.95;6.55;;;;;;;1.51;100.00;98301.97;10252875;28;20078;-58
2022/11/30 22:31:44;;;;;;;19.90;11.35;;;;;;;1.45;100.00;98292.31;10253003;28;20078;-58
2022/11/30 22:36:44;;;;;;;12.82;8.27;;;;;;;1.52;100.00;98290.91;10252157;28;20066;-58
2022/11/30 22:41:45;;;;;;;10.27;4.68;;;;;;;1.30;100.00;98284.00;10251900;28;20061;-58
2022/11/30 22:46:44;;;;;;;9.73;5.57;;;;;;;1.32;100.00;98283.25;10251755;28;20136;-58
2022/11/30 22:51:43;;;;;;;;;;;;;;;1.19;100.00;98286.06;10252667;28;20072;-58
2022/11/30 22:56:42;;;;;;;6.60;3.72;;;;;;;1.21;100.00;98276.78;10251790;28;19957;-63
2022/11/30 23:01:45;;;;;;;11.00;6.40;;;;;;;1.20;100.00;98279.25;10251413;28;20042;-59
2022/11/30 23:06:45;;;;;;;9.55;6.43;;;;;;;1.23;100.00;98271.75;10250932;28;20069;-58
2022/11/30 23:11:45;;;;;;;11.50;6.53;;;;;;;1.21;100.00;98266.56;10250928;28;20066;-58
2022/11/30 23:16:45;;;;;;;15.75;8.85;;;;;;;1.22;100.00;98263.19;10251051;28;20065;-58
2022/11/30 23:21:44;;;;;;;14.45;8.45;;;;;;;1.17;100.00;98259.56;10250499;28;20069;-58
2022/11/30 23:26:43;;;;;;;16.50;9.07;;;;;;;1.11;100.00;98259.31;10249810;28;20072;-58